sensor_id;sensor_type;location;lat;lon;timestamp;P1;durP1;ratioP1;P2;durP2;ratioP2
52057;SDS011;38063;53.210;6.504;2023-10-13T00:01:47;62.58;;;26.35;;
52057;SDS011;38063;53.210;6.504;2023-10-13T00:04:16;78.55;;;27.65;;
52057;SDS011;38063;53.210;6.504;2023-10-13T00:06:46;67.47;;;26.42;;
52057;SDS011;38063;53.210;6.504;2023-10-13T00:09:12;69.07;;;26.88;;
52057;SDS011;38063;53.210;6.504;2023-10-13T00:11:42;70.35;;;27.98;;
52057;SDS011;38063;53.210;6.504;2023-10-13T00:14:12;85.70;;;29.73;;
52057;SDS011;38063;53.210;6.504;2023-10-13T00:16:42;73.28;;;28.20;;
52057;SDS011;38063;53.210;6.504;2023-10-13T00:19:27;81.57;;;27.85;;
52057;SDS011;38063;53.210;6.504;2023-10-13T00:21:53;81.75;;;29.13;;
52057;SDS011;38063;53.210;6.504;2023-10-13T00:24:21;73.50;;;28.48;;
52057;SDS011;38063;53.210;6.504;2023-10-13T00:26:48;73.13;;;28.00;;
52057;SDS011;38063;53.210;6.504;2023-10-13T00:29:14;77.40;;;27.83;;
52057;SDS011;38063;53.210;6.504;2023-10-13T00:31:42;70.05;;;27.50;;
52057;SDS011;38063;53.210;6.504;2023-10-13T00:34:13;80.07;;;27.77;;
52057;SDS011;38063;53.210;6.504;2023-10-13T00:36:50;80.38;;;28.13;;
52057;SDS011;38063;53.210;6.504;2023-10-13T00:39:34;80.55;;;28.63;;
52057;SDS011;38063;53.210;6.504;2023-10-13T00:44:51;70.90;;;26.67;;
52057;SDS011;38063;53.210;6.504;2023-10-13T00:47:19;68.82;;;28.02;;
52057;SDS011;38063;53.210;6.504;2023-10-13T00:50:01;82.95;;;29.40;;
52057;SDS011;38063;53.210;6.504;2023-10-13T00:52:28;72.90;;;27.17;;
52057;SDS011;38063;53.210;6.504;2023-10-13T00:54:55;74.38;;;28.02;;
52057;SDS011;38063;53.210;6.504;2023-10-13T00:57:25;72.10;;;28.75;;
52057;SDS011;38063;53.210;6.504;2023-10-13T00:59:57;68.30;;;27.48;;
52057;SDS011;38063;53.210;6.504;2023-10-13T01:02:24;70.05;;;28.10;;
52057;SDS011;38063;53.210;6.504;2023-10-13T01:05:05;73.20;;;28.23;;
52057;SDS011;38063;53.210;6.504;2023-10-13T01:07:45;72.32;;;28.30;;
52057;SDS011;38063;53.210;6.504;2023-10-13T01:10:15;69.57;;;26.58;;
52057;SDS011;38063;53.210;6.504;2023-10-13T01:12:41;74.22;;;28.00;;
52057;SDS011;38063;53.210;6.504;2023-10-13T01:15:08;70.28;;;28.05;;
52057;SDS011;38063;53.210;6.504;2023-10-13T01:17:36;82.00;;;28.92;;
52057;SDS011;38063;53.210;6.504;2023-10-13T01:20:02;72.20;;;28.23;;
52057;SDS011;38063;53.210;6.504;2023-10-13T01:22:30;74.15;;;27.17;;
52057;SDS011;38063;53.210;6.504;2023-10-13T01:24:57;71.07;;;27.35;;
52057;SDS011;38063;53.210;6.504;2023-10-13T01:27:30;76.82;;;27.92;;
52057;SDS011;38063;53.210;6.504;2023-10-13T01:29:56;68.22;;;26.70;;
52057;SDS011;38063;53.210;6.504;2023-10-13T01:32:31;67.78;;;26.92;;
52057;SDS011;38063;53.210;6.504;2023-10-13T01:34:56;74.25;;;26.73;;
52057;SDS011;38063;53.210;6.504;2023-10-13T01:37:30;63.20;;;26.05;;
52057;SDS011;38063;53.210;6.504;2023-10-13T01:39:55;70.53;;;26.75;;
52057;SDS011;38063;53.210;6.504;2023-10-13T01:42:21;65.55;;;25.10;;
52057;SDS011;38063;53.210;6.504;2023-10-13T01:44:47;58.85;;;24.42;;
52057;SDS011;38063;53.210;6.504;2023-10-13T01:47:13;71.72;;;25.42;;
52057;SDS011;38063;53.210;6.504;2023-10-13T01:49:41;55.80;;;25.15;;
52057;SDS011;38063;53.210;6.504;2023-10-13T01:52:12;55.30;;;23.95;;
52057;SDS011;38063;53.210;6.504;2023-10-13T01:54:45;54.25;;;21.13;;
52057;SDS011;38063;53.210;6.504;2023-10-13T01:57:14;53.97;;;20.75;;
52057;SDS011;38063;53.210;6.504;2023-10-13T01:59:51;52.30;;;20.67;;
52057;SDS011;38063;53.210;6.504;2023-10-13T02:02:17;46.85;;;20.95;;
52057;SDS011;38063;53.210;6.504;2023-10-13T02:04:54;46.55;;;21.05;;
52057;SDS011;38063;53.210;6.504;2023-10-13T02:07:25;46.30;;;20.35;;
52057;SDS011;38063;53.210;6.504;2023-10-13T02:09:57;52.67;;;20.10;;
52057;SDS011;38063;53.210;6.504;2023-10-13T02:12:24;45.22;;;19.65;;
52057;SDS011;38063;53.210;6.504;2023-10-13T02:15:08;43.30;;;18.08;;
52057;SDS011;38063;53.210;6.504;2023-10-13T02:17:37;40.25;;;18.42;;
52057;SDS011;38063;53.210;6.504;2023-10-13T02:20:06;37.78;;;17.73;;
52057;SDS011;38063;53.210;6.504;2023-10-13T02:22:39;39.40;;;17.02;;
52057;SDS011;38063;53.210;6.504;2023-10-13T02:25:14;40.05;;;17.48;;
52057;SDS011;38063;53.210;6.504;2023-10-13T02:28:00;33.58;;;16.52;;
52057;SDS011;38063;53.210;6.504;2023-10-13T02:30:27;34.50;;;16.23;;
52057;SDS011;38063;53.210;6.504;2023-10-13T02:32:53;39.28;;;15.05;;
52057;SDS011;38063;53.210;6.504;2023-10-13T02:35:20;34.13;;;16.70;;
52057;SDS011;38063;53.210;6.504;2023-10-13T02:37:54;32.00;;;15.27;;
52057;SDS011;38063;53.210;6.504;2023-10-13T02:40:23;32.17;;;16.27;;
52057;SDS011;38063;53.210;6.504;2023-10-13T02:42:49;31.88;;;16.10;;
52057;SDS011;38063;53.210;6.504;2023-10-13T02:45:14;28.85;;;15.60;;
52057;SDS011;38063;53.210;6.504;2023-10-13T02:47:40;32.63;;;15.63;;
52057;SDS011;38063;53.210;6.504;2023-10-13T02:50:09;26.85;;;14.30;;
52057;SDS011;38063;53.210;6.504;2023-10-13T02:52:37;26.73;;;13.15;;
52057;SDS011;38063;53.210;6.504;2023-10-13T02:55:06;26.13;;;13.00;;
52057;SDS011;38063;53.210;6.504;2023-10-13T02:57:35;19.95;;;11.93;;
52057;SDS011;38063;53.210;6.504;2023-10-13T03:00:01;17.92;;;11.57;;
52057;SDS011;38063;53.210;6.504;2023-10-13T03:02:41;27.83;;;13.90;;
52057;SDS011;38063;53.210;6.504;2023-10-13T03:05:20;25.77;;;14.75;;
52057;SDS011;38063;53.210;6.504;2023-10-13T03:07:47;30.30;;;16.15;;
52057;SDS011;38063;53.210;6.504;2023-10-13T03:10:15;25.63;;;16.17;;
52057;SDS011;38063;53.210;6.504;2023-10-13T03:12:44;37.30;;;17.30;;
52057;SDS011;38063;53.210;6.504;2023-10-13T03:15:13;31.30;;;17.55;;
52057;SDS011;38063;53.210;6.504;2023-10-13T03:17:46;38.13;;;18.13;;
52057;SDS011;38063;53.210;6.504;2023-10-13T03:20:12;35.58;;;18.92;;
52057;SDS011;38063;53.210;6.504;2023-10-13T03:22:52;42.42;;;19.52;;
52057;SDS011;38063;53.210;6.504;2023-10-13T03:25:18;42.33;;;21.08;;
52057;SDS011;38063;53.210;6.504;2023-10-13T03:27:53;45.58;;;21.02;;
52057;SDS011;38063;53.210;6.504;2023-10-13T03:30:19;41.95;;;21.20;;
52057;SDS011;38063;53.210;6.504;2023-10-13T03:32:46;50.97;;;22.15;;
52057;SDS011;38063;53.210;6.504;2023-10-13T03:35:19;41.28;;;21.38;;
52057;SDS011;38063;53.210;6.504;2023-10-13T03:37:52;42.30;;;20.45;;
52057;SDS011;38063;53.210;6.504;2023-10-13T03:40:18;39.88;;;20.27;;
52057;SDS011;38063;53.210;6.504;2023-10-13T03:42:44;39.38;;;20.25;;
52057;SDS011;38063;53.210;6.504;2023-10-13T03:45:22;34.83;;;18.13;;
52057;SDS011;38063;53.210;6.504;2023-10-13T03:47:50;31.10;;;17.45;;
52057;SDS011;38063;53.210;6.504;2023-10-13T03:50:21;25.95;;;15.80;;
52057;SDS011;38063;53.210;6.504;2023-10-13T03:52:57;27.10;;;14.32;;
52057;SDS011;38063;53.210;6.504;2023-10-13T03:55:23;25.10;;;14.52;;
52057;SDS011;38063;53.210;6.504;2023-10-13T03:57:52;20.10;;;12.95;;
52057;SDS011;38063;53.210;6.504;2023-10-13T04:00:19;25.05;;;14.85;;
52057;SDS011;38063;53.210;6.504;2023-10-13T04:02:55;22.63;;;13.30;;
52057;SDS011;38063;53.210;6.504;2023-10-13T04:05:27;25.88;;;14.30;;
52057;SDS011;38063;53.210;6.504;2023-10-13T04:08:25;19.88;;;13.23;;
52057;SDS011;38063;53.210;6.504;2023-10-13T04:10:55;23.45;;;13.13;;
52057;SDS011;38063;53.210;6.504;2023-10-13T04:13:22;19.92;;;12.70;;
52057;SDS011;38063;53.210;6.504;2023-10-13T04:16:07;22.20;;;13.35;;
52057;SDS011;38063;53.210;6.504;2023-10-13T04:18:48;25.10;;;13.75;;
52057;SDS011;38063;53.210;6.504;2023-10-13T04:21:23;21.42;;;13.23;;
52057;SDS011;38063;53.210;6.504;2023-10-13T04:24:07;23.75;;;14.05;;
52057;SDS011;38063;53.210;6.504;2023-10-13T04:26:42;21.40;;;13.32;;
52057;SDS011;38063;53.210;6.504;2023-10-13T04:29:28;23.30;;;13.98;;
52057;SDS011;38063;53.210;6.504;2023-10-13T04:32:14;26.15;;;13.43;;
52057;SDS011;38063;53.210;6.504;2023-10-13T04:34:45;26.02;;;13.95;;
52057;SDS011;38063;53.210;6.504;2023-10-13T04:37:14;22.67;;;13.73;;
52057;SDS011;38063;53.210;6.504;2023-10-13T04:39:55;25.83;;;13.60;;
52057;SDS011;38063;53.210;6.504;2023-10-13T04:42:37;22.73;;;12.63;;
52057;SDS011;38063;53.210;6.504;2023-10-13T04:45:26;22.63;;;12.40;;
52057;SDS011;38063;53.210;6.504;2023-10-13T04:47:54;21.48;;;12.50;;
52057;SDS011;38063;53.210;6.504;2023-10-13T04:50:50;19.98;;;12.68;;
52057;SDS011;38063;53.210;6.504;2023-10-13T04:53:18;26.67;;;12.18;;
52057;SDS011;38063;53.210;6.504;2023-10-13T04:55:58;22.30;;;11.60;;
52057;SDS011;38063;53.210;6.504;2023-10-13T04:58:28;23.33;;;11.90;;
52057;SDS011;38063;53.210;6.504;2023-10-13T05:01:00;22.92;;;12.50;;
52057;SDS011;38063;53.210;6.504;2023-10-13T05:03:45;23.60;;;11.50;;
52057;SDS011;38063;53.210;6.504;2023-10-13T05:06:29;24.08;;;12.48;;
52057;SDS011;38063;53.210;6.504;2023-10-13T05:09:11;22.42;;;11.48;;
52057;SDS011;38063;53.210;6.504;2023-10-13T05:11:56;20.50;;;11.85;;
52057;SDS011;38063;53.210;6.504;2023-10-13T05:14:40;26.30;;;12.93;;
52057;SDS011;38063;53.210;6.504;2023-10-13T05:17:25;23.13;;;11.20;;
52057;SDS011;38063;53.210;6.504;2023-10-13T05:20:09;25.13;;;11.80;;
52057;SDS011;38063;53.210;6.504;2023-10-13T05:22:54;19.65;;;10.73;;
52057;SDS011;38063;53.210;6.504;2023-10-13T05:25:38;20.95;;;11.50;;
52057;SDS011;38063;53.210;6.504;2023-10-13T05:28:22;17.75;;;9.68;;
52057;SDS011;38063;53.210;6.504;2023-10-13T05:31:07;15.32;;;9.65;;
52057;SDS011;38063;53.210;6.504;2023-10-13T05:33:52;14.75;;;8.85;;
52057;SDS011;38063;53.210;6.504;2023-10-13T05:36:36;12.48;;;7.72;;
52057;SDS011;38063;53.210;6.504;2023-10-13T05:39:20;13.57;;;8.45;;
52057;SDS011;38063;53.210;6.504;2023-10-13T05:42:05;11.88;;;7.88;;
52057;SDS011;38063;53.210;6.504;2023-10-13T05:44:49;14.15;;;7.32;;
52057;SDS011;38063;53.210;6.504;2023-10-13T05:47:22;12.25;;;7.03;;
52057;SDS011;38063;53.210;6.504;2023-10-13T05:50:09;10.02;;;7.60;;
52057;SDS011;38063;53.210;6.504;2023-10-13T05:52:47;9.93;;;6.45;;
52057;SDS011;38063;53.210;6.504;2023-10-13T05:55:22;10.48;;;6.70;;
52057;SDS011;38063;53.210;6.504;2023-10-13T05:58:10;9.88;;;5.85;;
52057;SDS011;38063;53.210;6.504;2023-10-13T06:00:55;6.40;;;4.47;;
52057;SDS011;38063;53.210;6.504;2023-10-13T06:03:39;5.97;;;4.80;;
52057;SDS011;38063;53.210;6.504;2023-10-13T06:06:24;11.13;;;5.50;;
52057;SDS011;38063;53.210;6.504;2023-10-13T06:09:08;8.73;;;5.85;;
52057;SDS011;38063;53.210;6.504;2023-10-13T06:11:52;7.65;;;5.43;;
52057;SDS011;38063;53.210;6.504;2023-10-13T06:14:37;6.93;;;5.35;;
52057;SDS011;38063;53.210;6.504;2023-10-13T06:17:22;8.63;;;5.78;;
52057;SDS011;38063;53.210;6.504;2023-10-13T06:20:07;9.48;;;5.30;;
52057;SDS011;38063;53.210;6.504;2023-10-13T06:22:59;8.25;;;5.88;;
52057;SDS011;38063;53.210;6.504;2023-10-13T06:25:50;7.32;;;5.22;;
52057;SDS011;38063;53.210;6.504;2023-10-13T06:28:37;6.55;;;5.13;;
52057;SDS011;38063;53.210;6.504;2023-10-13T06:31:06;8.82;;;5.55;;
52057;SDS011;38063;53.210;6.504;2023-10-13T06:33:36;6.20;;;5.03;;
52057;SDS011;38063;53.210;6.504;2023-10-13T06:36:07;8.32;;;5.10;;
52057;SDS011;38063;53.210;6.504;2023-10-13T06:38:35;7.55;;;4.97;;
52057;SDS011;38063;53.210;6.504;2023-10-13T06:41:02;6.97;;;4.85;;
52057;SDS011;38063;53.210;6.504;2023-10-13T06:43:34;6.78;;;4.93;;
52057;SDS011;38063;53.210;6.504;2023-10-13T06:46:05;7.57;;;4.80;;
52057;SDS011;38063;53.210;6.504;2023-10-13T06:48:32;8.32;;;5.35;;
52057;SDS011;38063;53.210;6.504;2023-10-13T06:51:00;7.10;;;4.60;;
52057;SDS011;38063;53.210;6.504;2023-10-13T06:53:31;5.32;;;4.00;;
52057;SDS011;38063;53.210;6.504;2023-10-13T06:56:06;7.65;;;4.57;;
52057;SDS011;38063;53.210;6.504;2023-10-13T06:58:32;8.30;;;4.03;;
52057;SDS011;38063;53.210;6.504;2023-10-13T07:00:58;6.20;;;4.40;;
52057;SDS011;38063;53.210;6.504;2023-10-13T07:03:27;7.00;;;4.50;;
52057;SDS011;38063;53.210;6.504;2023-10-13T07:05:52;9.85;;;4.55;;
52057;SDS011;38063;53.210;6.504;2023-10-13T07:08:19;8.38;;;4.75;;
52057;SDS011;38063;53.210;6.504;2023-10-13T07:10:55;13.65;;;4.45;;
52057;SDS011;38063;53.210;6.504;2023-10-13T07:13:43;11.68;;;4.72;;
52057;SDS011;38063;53.210;6.504;2023-10-13T07:16:15;7.18;;;4.05;;
52057;SDS011;38063;53.210;6.504;2023-10-13T07:18:40;8.25;;;4.57;;
52057;SDS011;38063;53.210;6.504;2023-10-13T07:21:14;10.82;;;4.20;;
52057;SDS011;38063;53.210;6.504;2023-10-13T07:23:49;9.63;;;4.30;;
52057;SDS011;38063;53.210;6.504;2023-10-13T07:26:26;11.55;;;4.53;;
52057;SDS011;38063;53.210;6.504;2023-10-13T07:28:53;13.48;;;4.82;;
52057;SDS011;38063;53.210;6.504;2023-10-13T07:31:18;10.88;;;4.68;;
52057;SDS011;38063;53.210;6.504;2023-10-13T07:33:46;10.77;;;4.13;;
52057;SDS011;38063;53.210;6.504;2023-10-13T07:36:12;8.55;;;4.20;;
52057;SDS011;38063;53.210;6.504;2023-10-13T07:38:42;8.70;;;4.20;;
52057;SDS011;38063;53.210;6.504;2023-10-13T07:41:13;12.88;;;4.07;;
52057;SDS011;38063;53.210;6.504;2023-10-13T07:43:41;11.85;;;3.90;;
52057;SDS011;38063;53.210;6.504;2023-10-13T07:46:08;15.93;;;5.10;;
52057;SDS011;38063;53.210;6.504;2023-10-13T07:48:40;13.27;;;5.05;;
52057;SDS011;38063;53.210;6.504;2023-10-13T07:51:10;10.50;;;4.10;;
52057;SDS011;38063;53.210;6.504;2023-10-13T07:53:40;11.45;;;5.05;;
52057;SDS011;38063;53.210;6.504;2023-10-13T07:56:08;14.38;;;5.18;;
52057;SDS011;38063;53.210;6.504;2023-10-13T07:58:37;12.32;;;4.85;;
52057;SDS011;38063;53.210;6.504;2023-10-13T08:01:17;10.77;;;4.13;;
52057;SDS011;38063;53.210;6.504;2023-10-13T08:03:43;9.85;;;4.57;;
52057;SDS011;38063;53.210;6.504;2023-10-13T08:06:14;8.18;;;4.38;;
52057;SDS011;38063;53.210;6.504;2023-10-13T08:08:41;15.05;;;6.30;;
52057;SDS011;38063;53.210;6.504;2023-10-13T08:13:59;14.38;;;4.82;;
52057;SDS011;38063;53.210;6.504;2023-10-13T08:16:46;11.32;;;4.70;;
52057;SDS011;38063;53.210;6.504;2023-10-13T08:22:07;8.85;;;4.93;;
52057;SDS011;38063;53.210;6.504;2023-10-13T08:24:43;14.60;;;5.30;;
52057;SDS011;38063;53.210;6.504;2023-10-13T08:27:09;14.38;;;5.03;;
52057;SDS011;38063;53.210;6.504;2023-10-13T08:29:54;15.85;;;5.43;;
52057;SDS011;38063;53.210;6.504;2023-10-13T08:32:20;10.63;;;4.40;;
52057;SDS011;38063;53.210;6.504;2023-10-13T08:34:52;13.02;;;5.38;;
52057;SDS011;38063;53.210;6.504;2023-10-13T08:37:18;15.48;;;5.32;;
52057;SDS011;38063;53.210;6.504;2023-10-13T08:39:51;16.42;;;4.97;;
52057;SDS011;38063;53.210;6.504;2023-10-13T08:42:44;16.20;;;5.40;;
52057;SDS011;38063;53.210;6.504;2023-10-13T08:48:06;18.15;;;5.45;;
52057;SDS011;38063;53.210;6.504;2023-10-13T08:50:54;10.95;;;4.82;;
52057;SDS011;38063;53.210;6.504;2023-10-13T08:53:27;10.27;;;5.05;;
52057;SDS011;38063;53.210;6.504;2023-10-13T08:56:06;15.82;;;5.20;;
52057;SDS011;38063;53.210;6.504;2023-10-13T08:58:38;15.57;;;6.60;;
52057;SDS011;38063;53.210;6.504;2023-10-13T09:17:49;15.90;;;5.78;;
52057;SDS011;38063;53.210;6.504;2023-10-13T09:20:15;11.40;;;5.63;;
52057;SDS011;38063;53.210;6.504;2023-10-13T09:22:46;17.80;;;6.15;;
52057;SDS011;38063;53.210;6.504;2023-10-13T09:27:59;12.23;;;5.65;;
52057;SDS011;38063;53.210;6.504;2023-10-13T09:30:25;17.05;;;6.25;;
52057;SDS011;38063;53.210;6.504;2023-10-13T09:32:59;15.73;;;6.00;;
52057;SDS011;38063;53.210;6.504;2023-10-13T09:35:33;18.17;;;6.43;;
52057;SDS011;38063;53.210;6.504;2023-10-13T09:38:02;15.65;;;6.10;;
52057;SDS011;38063;53.210;6.504;2023-10-13T09:40:29;11.25;;;5.97;;
52057;SDS011;38063;53.210;6.504;2023-10-13T09:43:01;14.80;;;6.00;;
52057;SDS011;38063;53.210;6.504;2023-10-13T09:45:34;14.55;;;6.20;;
52057;SDS011;38063;53.210;6.504;2023-10-13T09:48:19;12.00;;;5.80;;
52057;SDS011;38063;53.210;6.504;2023-10-13T09:50:51;12.18;;;6.43;;
52057;SDS011;38063;53.210;6.504;2023-10-13T09:53:24;14.60;;;5.60;;
52057;SDS011;38063;53.210;6.504;2023-10-13T09:55:51;14.68;;;6.25;;
52057;SDS011;38063;53.210;6.504;2023-10-13T09:58:36;13.73;;;5.60;;
52057;SDS011;38063;53.210;6.504;2023-10-13T10:01:12;14.45;;;6.60;;
52057;SDS011;38063;53.210;6.504;2023-10-13T10:03:46;11.82;;;5.28;;
52057;SDS011;38063;53.210;6.504;2023-10-13T10:06:33;14.13;;;5.68;;
52057;SDS011;38063;53.210;6.504;2023-10-13T10:09:10;15.25;;;5.38;;
52057;SDS011;38063;53.210;6.504;2023-10-13T10:17:09;10.88;;;4.82;;
52057;SDS011;38063;53.210;6.504;2023-10-13T10:24:58;11.45;;;4.97;;
52057;SDS011;38063;53.210;6.504;2023-10-13T10:27:28;14.32;;;5.50;;
52057;SDS011;38063;53.210;6.504;2023-10-13T10:29:55;17.42;;;5.03;;
52057;SDS011;38063;53.210;6.504;2023-10-13T10:32:31;14.07;;;4.90;;
52057;SDS011;38063;53.210;6.504;2023-10-13T10:35:10;11.73;;;5.27;;
52057;SDS011;38063;53.210;6.504;2023-10-13T10:37:40;15.02;;;5.00;;
52057;SDS011;38063;53.210;6.504;2023-10-13T10:40:12;11.68;;;4.75;;
52057;SDS011;38063;53.210;6.504;2023-10-13T10:42:58;12.27;;;4.68;;
52057;SDS011;38063;53.210;6.504;2023-10-13T10:45:26;13.57;;;4.95;;
52057;SDS011;38063;53.210;6.504;2023-10-13T10:47:58;15.77;;;4.93;;
52057;SDS011;38063;53.210;6.504;2023-10-13T10:50:26;9.35;;;4.43;;
52057;SDS011;38063;53.210;6.504;2023-10-13T10:53:01;12.27;;;5.03;;
52057;SDS011;38063;53.210;6.504;2023-10-13T10:55:34;18.70;;;5.20;;
52057;SDS011;38063;53.210;6.504;2023-10-13T10:58:01;12.82;;;4.32;;
52057;SDS011;38063;53.210;6.504;2023-10-13T11:00:30;12.85;;;5.68;;
52057;SDS011;38063;53.210;6.504;2023-10-13T11:03:10;14.80;;;4.47;;
52057;SDS011;38063;53.210;6.504;2023-10-13T11:05:45;13.27;;;4.75;;
52057;SDS011;38063;53.210;6.504;2023-10-13T11:08:24;17.33;;;5.32;;
52057;SDS011;38063;53.210;6.504;2023-10-13T11:10:59;18.98;;;5.50;;
52057;SDS011;38063;53.210;6.504;2023-10-13T11:13:26;12.90;;;4.65;;
52057;SDS011;38063;53.210;6.504;2023-10-13T11:15:57;14.20;;;4.88;;
52057;SDS011;38063;53.210;6.504;2023-10-13T11:18:29;14.18;;;4.45;;
52057;SDS011;38063;53.210;6.504;2023-10-13T11:21:05;11.25;;;4.20;;
52057;SDS011;38063;53.210;6.504;2023-10-13T11:23:32;17.05;;;5.55;;
52057;SDS011;38063;53.210;6.504;2023-10-13T11:26:01;12.18;;;4.55;;
52057;SDS011;38063;53.210;6.504;2023-10-13T11:28:29;14.77;;;4.68;;
52057;SDS011;38063;53.210;6.504;2023-10-13T11:30:59;15.60;;;4.60;;
52057;SDS011;38063;53.210;6.504;2023-10-13T11:33:29;13.32;;;5.05;;
52057;SDS011;38063;53.210;6.504;2023-10-13T11:35:56;18.73;;;4.88;;
52057;SDS011;38063;53.210;6.504;2023-10-13T11:38:26;15.38;;;4.65;;
52057;SDS011;38063;53.210;6.504;2023-10-13T11:41:01;14.27;;;4.72;;
52057;SDS011;38063;53.210;6.504;2023-10-13T11:43:37;11.23;;;4.40;;
52057;SDS011;38063;53.210;6.504;2023-10-13T11:46:10;12.95;;;5.25;;
52057;SDS011;38063;53.210;6.504;2023-10-13T11:48:44;15.80;;;4.82;;
52057;SDS011;38063;53.210;6.504;2023-10-13T11:51:14;12.85;;;4.57;;
52057;SDS011;38063;53.210;6.504;2023-10-13T11:53:49;16.17;;;4.90;;
52057;SDS011;38063;53.210;6.504;2023-10-13T11:56:19;12.75;;;5.00;;
52057;SDS011;38063;53.210;6.504;2023-10-13T11:58:46;20.13;;;5.15;;
52057;SDS011;38063;53.210;6.504;2023-10-13T12:01:12;10.65;;;5.28;;
52057;SDS011;38063;53.210;6.504;2023-10-13T12:03:42;12.70;;;4.85;;
52057;SDS011;38063;53.210;6.504;2023-10-13T12:06:27;15.52;;;5.50;;
52057;SDS011;38063;53.210;6.504;2023-10-13T12:11:41;14.88;;;5.70;;
52057;SDS011;38063;53.210;6.504;2023-10-13T12:14:07;14.48;;;5.10;;
52057;SDS011;38063;53.210;6.504;2023-10-13T12:16:44;16.77;;;5.30;;
52057;SDS011;38063;53.210;6.504;2023-10-13T12:19:20;16.00;;;5.10;;
52057;SDS011;38063;53.210;6.504;2023-10-13T12:21:50;12.60;;;5.13;;
52057;SDS011;38063;53.210;6.504;2023-10-13T12:24:19;13.70;;;5.70;;
52057;SDS011;38063;53.210;6.504;2023-10-13T12:27:01;18.20;;;5.30;;
52057;SDS011;38063;53.210;6.504;2023-10-13T12:29:27;14.27;;;5.28;;
52057;SDS011;38063;53.210;6.504;2023-10-13T12:31:56;14.88;;;5.13;;
52057;SDS011;38063;53.210;6.504;2023-10-13T12:34:37;12.10;;;5.55;;
52057;SDS011;38063;53.210;6.504;2023-10-13T12:37:22;12.95;;;5.40;;
52057;SDS011;38063;53.210;6.504;2023-10-13T12:40:07;12.43;;;5.50;;
52057;SDS011;38063;53.210;6.504;2023-10-13T12:42:53;12.77;;;5.28;;
52057;SDS011;38063;53.210;6.504;2023-10-13T12:45:41;11.98;;;5.65;;
52057;SDS011;38063;53.210;6.504;2023-10-13T12:48:27;21.15;;;5.88;;
52057;SDS011;38063;53.210;6.504;2023-10-13T12:51:12;11.20;;;5.87;;
52057;SDS011;38063;53.210;6.504;2023-10-13T12:54:05;17.33;;;6.20;;
52057;SDS011;38063;53.210;6.504;2023-10-13T12:56:38;18.60;;;6.80;;
52057;SDS011;38063;53.210;6.504;2023-10-13T12:59:07;20.17;;;6.28;;
52057;SDS011;38063;53.210;6.504;2023-10-13T13:01:34;20.92;;;6.03;;
52057;SDS011;38063;53.210;6.504;2023-10-13T13:04:00;15.82;;;6.20;;
52057;SDS011;38063;53.210;6.504;2023-10-13T13:06:28;17.27;;;7.22;;
52057;SDS011;38063;53.210;6.504;2023-10-13T13:08:56;17.80;;;6.50;;
52057;SDS011;38063;53.210;6.504;2023-10-13T13:11:23;10.98;;;5.90;;
52057;SDS011;38063;53.210;6.504;2023-10-13T13:13:50;12.32;;;7.00;;
52057;SDS011;38063;53.210;6.504;2023-10-13T13:16:16;19.98;;;7.65;;
52057;SDS011;38063;53.210;6.504;2023-10-13T13:18:45;15.15;;;7.00;;
52057;SDS011;38063;53.210;6.504;2023-10-13T13:21:11;17.73;;;6.57;;
52057;SDS011;38063;53.210;6.504;2023-10-13T13:23:51;18.98;;;6.70;;
52057;SDS011;38063;53.210;6.504;2023-10-13T13:26:20;17.40;;;7.07;;
52057;SDS011;38063;53.210;6.504;2023-10-13T13:28:47;17.48;;;6.57;;
52057;SDS011;38063;53.210;6.504;2023-10-13T13:31:19;19.80;;;6.80;;
52057;SDS011;38063;53.210;6.504;2023-10-13T13:33:50;15.77;;;6.82;;
52057;SDS011;38063;53.210;6.504;2023-10-13T13:36:16;19.17;;;7.03;;
52057;SDS011;38063;53.210;6.504;2023-10-13T13:38:42;16.63;;;6.80;;
52057;SDS011;38063;53.210;6.504;2023-10-13T13:41:14;17.42;;;7.55;;
52057;SDS011;38063;53.210;6.504;2023-10-13T13:43:47;12.90;;;6.88;;
52057;SDS011;38063;53.210;6.504;2023-10-13T13:46:18;15.27;;;6.95;;
52057;SDS011;38063;53.210;6.504;2023-10-13T13:48:52;15.10;;;6.43;;
52057;SDS011;38063;53.210;6.504;2023-10-13T13:51:32;19.48;;;6.90;;
52057;SDS011;38063;53.210;6.504;2023-10-13T13:53:58;18.00;;;7.32;;
52057;SDS011;38063;53.210;6.504;2023-10-13T13:56:24;15.77;;;7.43;;
52057;SDS011;38063;53.210;6.504;2023-10-13T13:58:52;17.67;;;6.88;;
52057;SDS011;38063;53.210;6.504;2023-10-13T14:01:19;14.25;;;7.05;;
52057;SDS011;38063;53.210;6.504;2023-10-13T14:03:52;17.33;;;6.70;;
52057;SDS011;38063;53.210;6.504;2023-10-13T14:06:22;18.92;;;6.75;;
52057;SDS011;38063;53.210;6.504;2023-10-13T14:08:58;20.20;;;6.55;;
52057;SDS011;38063;53.210;6.504;2023-10-13T14:11:29;22.55;;;7.22;;
52057;SDS011;38063;53.210;6.504;2023-10-13T14:14:04;16.52;;;6.60;;
52057;SDS011;38063;53.210;6.504;2023-10-13T14:16:52;19.23;;;6.40;;
52057;SDS011;38063;53.210;6.504;2023-10-13T14:19:18;16.20;;;6.43;;
52057;SDS011;38063;53.210;6.504;2023-10-13T14:21:52;15.80;;;6.22;;
52057;SDS011;38063;53.210;6.504;2023-10-13T14:24:21;16.75;;;7.43;;
52057;SDS011;38063;53.210;6.504;2023-10-13T14:26:58;18.83;;;6.82;;
52057;SDS011;38063;53.210;6.504;2023-10-13T14:29:34;18.20;;;7.55;;
52057;SDS011;38063;53.210;6.504;2023-10-13T14:32:05;18.25;;;7.28;;
52057;SDS011;38063;53.210;6.504;2023-10-13T14:34:32;20.75;;;6.75;;
52057;SDS011;38063;53.210;6.504;2023-10-13T14:37:00;19.77;;;6.13;;
52057;SDS011;38063;53.210;6.504;2023-10-13T14:39:26;17.55;;;6.20;;
52057;SDS011;38063;53.210;6.504;2023-10-13T14:41:55;18.42;;;6.57;;
52057;SDS011;38063;53.210;6.504;2023-10-13T14:44:20;17.25;;;6.68;;
52057;SDS011;38063;53.210;6.504;2023-10-13T14:46:51;20.40;;;6.40;;
52057;SDS011;38063;53.210;6.504;2023-10-13T14:49:21;18.42;;;6.18;;
52057;SDS011;38063;53.210;6.504;2023-10-13T14:51:46;19.88;;;6.18;;
52057;SDS011;38063;53.210;6.504;2023-10-13T14:54:14;14.00;;;5.78;;
52057;SDS011;38063;53.210;6.504;2023-10-13T14:56:40;16.50;;;7.25;;
52057;SDS011;38063;53.210;6.504;2023-10-13T14:59:09;16.75;;;6.47;;
52057;SDS011;38063;53.210;6.504;2023-10-13T15:01:42;16.50;;;5.85;;
52057;SDS011;38063;53.210;6.504;2023-10-13T15:04:08;14.18;;;6.22;;
52057;SDS011;38063;53.210;6.504;2023-10-13T15:06:34;18.45;;;6.90;;
52057;SDS011;38063;53.210;6.504;2023-10-13T15:09:00;14.40;;;5.90;;
52057;SDS011;38063;53.210;6.504;2023-10-13T15:11:26;17.40;;;6.57;;
52057;SDS011;38063;53.210;6.504;2023-10-13T15:14:01;16.17;;;6.32;;
52057;SDS011;38063;53.210;6.504;2023-10-13T15:16:33;18.80;;;5.95;;
52057;SDS011;38063;53.210;6.504;2023-10-13T15:18:59;18.98;;;6.45;;
52057;SDS011;38063;53.210;6.504;2023-10-13T15:21:26;15.93;;;5.95;;
52057;SDS011;38063;53.210;6.504;2023-10-13T15:24:02;15.38;;;6.63;;
52057;SDS011;38063;53.210;6.504;2023-10-13T15:26:32;23.17;;;6.68;;
52057;SDS011;38063;53.210;6.504;2023-10-13T15:29:03;15.00;;;6.72;;
52057;SDS011;38063;53.210;6.504;2023-10-13T15:31:34;15.32;;;6.10;;
52057;SDS011;38063;53.210;6.504;2023-10-13T15:34:03;12.52;;;6.25;;
52057;SDS011;38063;53.210;6.504;2023-10-13T15:36:48;13.35;;;6.05;;
52057;SDS011;38063;53.210;6.504;2023-10-13T15:39:17;20.15;;;6.22;;
52057;SDS011;38063;53.210;6.504;2023-10-13T15:41:48;18.42;;;5.90;;
52057;SDS011;38063;53.210;6.504;2023-10-13T15:44:18;17.00;;;7.35;;
52057;SDS011;38063;53.210;6.504;2023-10-13T15:46:45;16.27;;;6.20;;
52057;SDS011;38063;53.210;6.504;2023-10-13T15:49:17;19.25;;;5.82;;